createdAt,value
2022-11-27T00:00:24.519Z,1019.77
2022-11-27T00:01:24.514Z,1019.78
2022-11-27T00:02:24.553Z,1019.78
2022-11-27T00:03:24.644Z,1019.80
2022-11-27T00:04:24.489Z,1019.71
2022-11-27T00:05:24.491Z,1019.75
2022-11-27T00:06:24.467Z,1019.74
2022-11-27T00:07:24.478Z,1019.72
2022-11-27T00:08:24.437Z,1019.66
2022-11-27T00:09:24.428Z,1019.78
2022-11-27T00:10:24.429Z,1019.66
2022-11-27T00:11:24.419Z,1019.64
2022-11-27T00:12:24.385Z,1019.69
2022-11-27T00:13:31.490Z,1019.64
2022-11-27T00:14:24.357Z,1019.70
2022-11-27T00:15:24.361Z,1019.68
2022-11-27T00:16:24.439Z,1019.65
2022-11-27T00:17:24.326Z,1019.62
2022-11-27T00:18:24.330Z,1019.57
2022-11-27T00:19:24.316Z,1019.64
2022-11-27T00:20:29.511Z,1019.52
2022-11-27T00:21:25.316Z,1019.55
2022-11-27T00:22:24.284Z,1019.54
2022-11-27T00:23:24.254Z,1019.52
2022-11-27T00:24:24.247Z,1019.48
2022-11-27T00:25:24.256Z,1019.58
2022-11-27T00:26:24.225Z,1019.55
2022-11-27T00:27:24.220Z,1019.57
2022-11-27T00:28:24.208Z,1019.57
2022-11-27T00:29:24.196Z,1019.50
2022-11-27T00:30:24.181Z,1019.51
2022-11-27T00:31:24.283Z,1019.50
2022-11-27T00:32:24.159Z,1019.52
2022-11-27T00:33:24.143Z,1019.57
2022-11-27T00:34:24.133Z,1019.51
2022-11-27T00:35:24.120Z,1019.57
2022-11-27T00:36:24.123Z,1019.57
2022-11-27T00:37:24.118Z,1019.56
2022-11-27T00:38:24.100Z,1019.54
2022-11-27T00:39:24.083Z,1019.58
2022-11-27T00:40:24.075Z,1019.65
2022-11-27T00:41:24.064Z,1019.60
2022-11-27T00:42:24.063Z,1019.58
2022-11-27T00:43:24.033Z,1019.59
2022-11-27T00:44:24.037Z,1019.53
2022-11-27T00:45:24.020Z,1019.55
2022-11-27T00:46:28.438Z,1019.59
2022-11-27T00:47:25.007Z,1019.56
2022-11-27T00:48:23.981Z,1019.56
2022-11-27T00:49:23.968Z,1019.51
2022-11-27T00:50:23.957Z,1019.53
2022-11-27T00:51:23.958Z,1019.53
2022-11-27T00:52:23.948Z,1019.54
2022-11-27T00:53:23.937Z,1019.50
2022-11-27T00:54:23.915Z,1019.54
2022-11-27T00:55:23.911Z,1019.49
2022-11-27T00:56:23.894Z,1019.54
2022-11-27T00:57:23.878Z,1019.54
2022-11-27T00:58:23.871Z,1019.48
2022-11-27T00:59:23.861Z,1019.49
2022-11-27T01:00:23.841Z,1019.53
2022-11-27T01:01:23.896Z,1019.54
2022-11-27T01:02:23.888Z,1019.57
2022-11-27T01:03:23.818Z,1019.54
2022-11-27T01:04:23.819Z,1019.56
2022-11-27T01:05:23.787Z,1019.53
2022-11-27T01:06:23.779Z,1019.56
2022-11-27T01:07:23.818Z,1019.57
2022-11-27T01:08:23.760Z,1019.57
2022-11-27T01:09:23.765Z,1019.50
2022-11-27T01:10:23.739Z,1019.57
2022-11-27T01:11:23.725Z,1019.57
2022-11-27T01:12:23.707Z,1019.59
2022-11-27T01:13:23.694Z,1019.56
2022-11-27T01:14:23.709Z,1019.58
2022-11-27T01:15:23.679Z,1019.57
2022-11-27T01:16:23.733Z,1019.54
2022-11-27T01:17:23.665Z,1019.58
2022-11-27T01:18:23.643Z,1019.53
2022-11-27T01:19:23.641Z,1019.49
2022-11-27T01:20:23.627Z,1019.51
2022-11-27T01:21:23.611Z,1019.51
2022-11-27T01:22:23.623Z,1019.50
2022-11-27T01:23:23.586Z,1019.49
2022-11-27T01:24:23.581Z,1019.50
2022-11-27T01:25:26.923Z,1019.54
2022-11-27T01:26:23.560Z,1019.53
2022-11-27T01:27:23.536Z,1019.59
2022-11-27T01:28:23.530Z,1019.55
2022-11-27T01:29:23.528Z,1019.54
2022-11-27T01:30:23.518Z,1019.55
2022-11-27T01:31:23.569Z,1019.47
2022-11-27T01:32:23.489Z,1019.52
2022-11-27T01:33:23.470Z,1019.52
2022-11-27T01:34:23.460Z,1019.45
2022-11-27T01:35:23.461Z,1019.46
2022-11-27T01:36:23.445Z,1019.44
2022-11-27T01:37:23.432Z,1019.44
2022-11-27T01:38:23.415Z,1019.40
2022-11-27T01:39:23.401Z,1019.38
2022-11-27T01:40:23.417Z,1019.34
2022-11-27T01:41:23.412Z,1019.39
2022-11-27T01:42:23.382Z,1019.33
2022-11-27T01:43:23.372Z,1019.32
2022-11-27T01:44:23.356Z,1019.31
2022-11-27T01:45:23.347Z,1019.32
2022-11-27T01:46:23.408Z,1019.34
2022-11-27T01:47:23.325Z,1019.29
2022-11-27T01:48:23.300Z,1019.26
2022-11-27T01:49:23.287Z,1019.32
2022-11-27T01:50:23.278Z,1019.34
2022-11-27T01:51:23.263Z,1019.31
2022-11-27T01:52:23.302Z,1019.33
2022-11-27T01:53:23.242Z,1019.32
2022-11-27T01:54:23.236Z,1019.24
2022-11-27T01:55:23.220Z,1019.31
2022-11-27T01:56:23.217Z,1019.26
2022-11-27T01:57:23.217Z,1019.31
2022-11-27T01:58:23.204Z,1019.25
2022-11-27T01:59:23.182Z,1019.17
2022-11-27T02:00:23.186Z,1019.20
2022-11-27T02:01:23.200Z,1019.20
2022-11-27T02:02:23.201Z,1019.20
2022-11-27T02:03:23.221Z,1019.20
2022-11-27T02:04:23.135Z,1019.20
2022-11-27T02:05:23.106Z,1019.20
2022-11-27T02:06:23.097Z,1019.24
2022-11-27T02:07:23.242Z,1019.26
2022-11-27T02:08:23.086Z,1019.19
2022-11-27T02:09:23.080Z,1019.20
2022-11-27T02:10:23.059Z,1019.16
2022-11-27T02:11:23.054Z,1019.18
2022-11-27T02:12:23.035Z,1019.10
2022-11-27T02:13:23.035Z,1019.09
2022-11-27T02:14:23.009Z,1018.99
2022-11-27T02:15:23.009Z,1019.00
2022-11-27T02:16:23.101Z,1019.02
2022-11-27T02:17:22.976Z,1018.96
2022-11-27T02:18:22.962Z,1018.96
2022-11-27T02:19:22.958Z,1018.93
2022-11-27T02:20:22.960Z,1018.93
2022-11-27T02:21:22.922Z,1018.85
2022-11-27T02:22:22.917Z,1018.87
2022-11-27T02:23:22.916Z,1018.84
2022-11-27T02:24:22.902Z,1018.80
2022-11-27T02:25:28.137Z,1018.91
2022-11-27T02:26:23.893Z,1018.89
2022-11-27T02:27:22.863Z,1018.91
2022-11-27T02:28:22.864Z,1018.94
2022-11-27T02:29:22.852Z,1018.92
2022-11-27T02:30:22.842Z,1018.93
2022-11-27T02:31:22.857Z,1018.86
2022-11-27T02:32:22.825Z,1018.90
2022-11-27T02:33:22.797Z,1018.83
2022-11-27T02:34:22.782Z,1018.86
2022-11-27T02:35:22.774Z,1018.78
2022-11-27T02:36:22.782Z,1018.81
2022-11-27T02:37:22.767Z,1018.75
2022-11-27T02:38:22.739Z,1018.66
2022-11-27T02:39:22.725Z,1018.68
2022-11-27T02:40:22.716Z,1018.70
2022-11-27T02:41:22.711Z,1018.60
2022-11-27T02:42:22.808Z,1018.65
2022-11-27T02:43:22.689Z,1018.48
2022-11-27T02:44:22.671Z,1018.51
2022-11-27T02:45:22.661Z,1018.51
2022-11-27T02:46:22.680Z,1018.51
2022-11-27T02:47:22.646Z,1018.47
2022-11-27T02:48:22.633Z,1018.53
2022-11-27T02:49:22.635Z,1018.51
2022-11-27T02:50:22.604Z,1018.51
2022-11-27T02:51:22.612Z,1018.51
2022-11-27T02:52:22.583Z,1018.44
2022-11-27T02:53:22.574Z,1018.45
2022-11-27T02:54:22.585Z,1018.45
2022-11-27T02:55:22.553Z,1018.36
2022-11-27T02:56:22.545Z,1018.43
2022-11-27T02:57:22.530Z,1018.42
2022-11-27T02:58:22.634Z,1018.40
2022-11-27T02:59:22.507Z,1018.45
2022-11-27T03:00:22.490Z,1018.36
2022-11-27T03:01:22.538Z,1018.41
2022-11-27T03:02:22.559Z,1018.41
2022-11-27T03:03:22.466Z,1018.40
2022-11-27T03:04:22.453Z,1018.34
2022-11-27T03:05:22.452Z,1018.34
2022-11-27T03:06:22.429Z,1018.36
2022-11-27T03:07:22.476Z,1018.32
2022-11-27T03:08:22.419Z,1018.38
2022-11-27T03:09:22.396Z,1018.36
2022-11-27T03:10:22.381Z,1018.32
2022-11-27T03:11:22.364Z,1018.31
2022-11-27T03:12:22.381Z,1018.39
2022-11-27T03:13:22.349Z,1018.33
2022-11-27T03:14:22.446Z,1018.30
2022-11-27T03:15:22.321Z,1018.29
2022-11-27T03:16:22.348Z,1018.26
2022-11-27T03:17:22.320Z,1018.28
2022-11-27T03:18:22.312Z,1018.23
2022-11-27T03:19:22.275Z,1018.22
2022-11-27T03:20:22.282Z,1018.21
2022-11-27T03:21:22.253Z,1018.22
2022-11-27T03:22:22.243Z,1018.25
2022-11-27T03:23:22.252Z,1018.21
2022-11-27T03:24:22.238Z,1018.17
2022-11-27T03:25:22.218Z,1018.15
2022-11-27T03:26:22.199Z,1018.06
2022-11-27T03:27:22.196Z,1018.08
2022-11-27T03:28:22.192Z,1018.10
2022-11-27T03:29:22.171Z,1018.09
2022-11-27T03:30:22.284Z,1018.07
2022-11-27T03:31:22.234Z,1018.00
2022-11-27T03:32:22.145Z,1018.06
2022-11-27T03:33:22.125Z,1018.08
2022-11-27T03:34:22.115Z,1018.08
2022-11-27T03:35:22.113Z,1018.06
2022-11-27T03:36:22.099Z,1018.09
2022-11-27T03:37:22.075Z,1017.97
2022-11-27T03:38:22.081Z,1017.94
2022-11-27T03:39:22.058Z,1018.02
2022-11-27T03:40:22.050Z,1017.99
2022-11-27T03:41:22.040Z,1018.06
2022-11-27T03:42:22.043Z,1018.08
2022-11-27T03:43:22.018Z,1018.04
2022-11-27T03:44:22.000Z,1018.11
2022-11-27T03:45:21.995Z,1018.02
2022-11-27T03:46:22.156Z,1018.06
2022-11-27T03:47:22.011Z,1018.11
2022-11-27T03:48:21.977Z,1018.05
2022-11-27T03:49:21.943Z,1018.07
2022-11-27T03:50:21.934Z,1018.05
2022-11-27T03:51:21.920Z,1018.03
2022-11-27T03:52:21.914Z,1018.04
2022-11-27T03:53:21.922Z,1018.02
2022-11-27T03:54:21.899Z,1018.13
2022-11-27T03:55:21.882Z,1018.06
2022-11-27T03:56:21.875Z,1018.07
2022-11-27T03:57:21.867Z,1018.03
2022-11-27T03:58:21.855Z,1018.02
2022-11-27T03:59:21.838Z,1018.07
2022-11-27T04:00:21.825Z,1018.05
2022-11-27T04:01:21.942Z,1017.95
2022-11-27T04:02:22.004Z,1018.03
2022-11-27T04:03:21.792Z,1017.97
2022-11-27T04:04:21.871Z,1017.98
2022-11-27T04:05:21.762Z,1017.88
2022-11-27T04:06:21.753Z,1017.89
2022-11-27T04:07:21.835Z,1017.88
2022-11-27T04:08:21.730Z,1017.83
2022-11-27T04:09:21.730Z,1017.86
2022-11-27T04:10:21.714Z,1017.83
2022-11-27T04:11:21.709Z,1017.85
2022-11-27T04:12:21.704Z,1017.85
2022-11-27T04:13:21.687Z,1017.86
2022-11-27T04:14:21.672Z,1017.84
2022-11-27T04:15:21.661Z,1017.84
2022-11-27T04:16:21.785Z,1017.80
2022-11-27T04:17:21.628Z,1017.87
2022-11-27T04:18:21.735Z,1017.84
2022-11-27T04:19:21.608Z,1017.84
2022-11-27T04:20:21.615Z,1017.84
2022-11-27T04:21:21.587Z,1017.85
2022-11-27T04:22:21.573Z,1017.70
2022-11-27T04:23:21.570Z,1017.67
2022-11-27T04:24:21.563Z,1017.62
2022-11-27T04:25:21.540Z,1017.58
2022-11-27T04:26:21.532Z,1017.58
2022-11-27T04:27:21.517Z,1017.55
2022-11-27T04:28:21.509Z,1017.48
2022-11-27T04:29:21.513Z,1017.40
2022-11-27T04:30:21.500Z,1017.40
2022-11-27T04:31:21.541Z,1017.50
2022-11-27T04:32:21.461Z,1017.54
2022-11-27T04:33:21.446Z,1017.55
2022-11-27T04:34:21.550Z,1017.49
2022-11-27T04:35:21.466Z,1017.49
2022-11-27T04:36:21.417Z,1017.46
2022-11-27T04:37:21.403Z,1017.39
2022-11-27T04:38:21.397Z,1017.41
2022-11-27T04:39:21.385Z,1017.43
2022-11-27T04:40:21.373Z,1017.39
2022-11-27T04:41:21.374Z,1017.38
2022-11-27T04:42:21.359Z,1017.27
2022-11-27T04:43:21.347Z,1017.35
2022-11-27T04:44:21.330Z,1017.28
2022-11-27T04:45:21.336Z,1017.33
2022-11-27T04:46:21.479Z,1017.35
2022-11-27T04:47:21.293Z,1017.33
2022-11-27T04:48:21.285Z,1017.26
2022-11-27T04:49:21.281Z,1017.28
2022-11-27T04:50:21.382Z,1017.36
2022-11-27T04:51:21.263Z,1017.35
2022-11-27T04:52:21.250Z,1017.29
2022-11-27T04:53:21.231Z,1017.31
2022-11-27T04:54:21.222Z,1017.27
2022-11-27T04:55:21.207Z,1017.32
2022-11-27T04:56:21.205Z,1017.27
2022-11-27T04:57:21.191Z,1017.36
2022-11-27T04:58:21.171Z,1017.28
2022-11-27T04:59:21.163Z,1017.28
2022-11-27T05:00:21.152Z,1017.33
2022-11-27T05:01:21.208Z,1017.35
2022-11-27T05:02:21.130Z,1017.30
2022-11-27T05:03:21.203Z,1017.31
2022-11-27T05:04:21.117Z,1017.34
2022-11-27T05:05:21.093Z,1017.23
2022-11-27T05:06:21.267Z,1017.26
2022-11-27T05:07:21.123Z,1017.27
2022-11-27T05:08:21.076Z,1017.27
2022-11-27T05:09:21.047Z,1017.21
2022-11-27T05:10:21.030Z,1017.18
2022-11-27T05:11:21.023Z,1017.20
2022-11-27T05:12:21.016Z,1017.11
2022-11-27T05:13:21.010Z,1017.12
2022-11-27T05:14:20.997Z,1017.07
2022-11-27T05:15:20.982Z,1017.14
2022-11-27T05:16:21.042Z,1017.06
2022-11-27T05:17:20.976Z,1017.09
2022-11-27T05:18:20.949Z,1017.05
2022-11-27T05:19:20.947Z,1017.00
2022-11-27T05:20:20.935Z,1017.04
2022-11-27T05:21:20.911Z,1016.98
2022-11-27T05:22:21.021Z,1016.93
2022-11-27T05:23:20.898Z,1016.93
2022-11-27T05:24:20.878Z,1016.88
2022-11-27T05:25:20.872Z,1016.83
2022-11-27T05:26:20.864Z,1016.86
2022-11-27T05:27:20.852Z,1016.86
2022-11-27T05:28:26.264Z,1016.85
2022-11-27T05:29:21.837Z,1016.85
2022-11-27T05:30:20.834Z,1016.88
2022-11-27T05:31:20.886Z,1016.89
2022-11-27T05:32:20.801Z,1016.92
2022-11-27T05:33:20.794Z,1017.03
2022-11-27T05:34:20.771Z,1017.00
2022-11-27T05:35:20.768Z,1017.06
2022-11-27T05:36:20.755Z,1017.02
2022-11-27T05:37:20.740Z,1017.10
2022-11-27T05:38:20.842Z,1017.07
2022-11-27T05:39:20.716Z,1017.03
2022-11-27T05:40:20.707Z,1017.07
2022-11-27T05:41:20.697Z,1017.01
2022-11-27T05:42:20.689Z,1017.03
2022-11-27T05:43:20.687Z,1016.99
2022-11-27T05:44:20.653Z,1016.93
2022-11-27T05:45:20.641Z,1016.95
2022-11-27T05:46:20.674Z,1016.87
2022-11-27T05:47:20.639Z,1016.87
2022-11-27T05:48:20.615Z,1016.88
2022-11-27T05:49:20.619Z,1016.86
2022-11-27T05:50:20.584Z,1016.80
2022-11-27T05:51:20.580Z,1016.83
2022-11-27T05:52:20.569Z,1016.83
2022-11-27T05:53:20.569Z,1016.79
2022-11-27T05:54:20.663Z,1016.74
2022-11-27T05:55:20.534Z,1016.80
2022-11-27T05:56:20.529Z,1016.71
2022-11-27T05:57:20.505Z,1016.71
2022-11-27T05:58:20.493Z,1016.67
2022-11-27T05:59:20.508Z,1016.74
2022-11-27T06:00:20.471Z,1016.70
2022-11-27T06:01:20.469Z,1016.69
2022-11-27T06:02:25.021Z,1016.68
2022-11-27T06:03:21.521Z,1016.76
2022-11-27T06:04:20.432Z,1016.70
2022-11-27T06:05:20.416Z,1016.72
2022-11-27T06:06:20.419Z,1016.67
2022-11-27T06:07:20.488Z,1016.72
2022-11-27T06:08:20.380Z,1016.78
2022-11-27T06:09:20.375Z,1016.73
2022-11-27T06:10:20.471Z,1016.73
2022-11-27T06:11:20.350Z,1016.80
2022-11-27T06:12:20.356Z,1016.70
2022-11-27T06:13:20.328Z,1016.71
2022-11-27T06:14:20.326Z,1016.70
2022-11-27T06:15:20.314Z,1016.78
2022-11-27T06:16:20.414Z,1016.84
2022-11-27T06:17:20.294Z,1016.75
2022-11-27T06:18:20.274Z,1016.75
2022-11-27T06:19:20.264Z,1016.75
2022-11-27T06:20:20.260Z,1016.69
2022-11-27T06:21:20.246Z,1016.70
2022-11-27T06:22:20.250Z,1016.66
2022-11-27T06:23:20.214Z,1016.69
2022-11-27T06:24:20.207Z,1016.70
2022-11-27T06:25:20.211Z,1016.69
2022-11-27T06:26:20.296Z,1016.66
2022-11-27T06:27:20.173Z,1016.64
2022-11-27T06:28:20.155Z,1016.67
2022-11-27T06:29:20.154Z,1016.69
2022-11-27T06:30:20.132Z,1016.70
2022-11-27T06:31:20.175Z,1016.65
2022-11-27T06:32:20.126Z,1016.65
2022-11-27T06:33:20.101Z,1016.65
2022-11-27T06:34:20.089Z,1016.64
2022-11-27T06:35:20.077Z,1016.63
2022-11-27T06:36:20.067Z,1016.62
2022-11-27T06:37:20.057Z,1016.61
2022-11-27T06:38:20.061Z,1016.61
2022-11-27T06:39:20.035Z,1016.63
2022-11-27T06:40:20.018Z,1016.61
2022-11-27T06:41:20.008Z,1016.62
2022-11-27T06:42:20.114Z,1016.62
2022-11-27T06:43:19.991Z,1016.56
2022-11-27T06:44:19.999Z,1016.54
2022-11-27T06:45:19.978Z,1016.48
2022-11-27T06:46:20.070Z,1016.46
2022-11-27T06:47:19.954Z,1016.44
2022-11-27T06:48:19.933Z,1016.54
2022-11-27T06:49:19.931Z,1016.44
2022-11-27T06:50:19.915Z,1016.50
2022-11-27T06:51:19.907Z,1016.44
2022-11-27T06:52:19.887Z,1016.45
2022-11-27T06:53:19.874Z,1016.42
2022-11-27T06:54:19.874Z,1016.38
2022-11-27T06:55:19.854Z,1016.38
2022-11-27T06:56:19.847Z,1016.37
2022-11-27T06:57:19.847Z,1016.41
2022-11-27T06:58:19.931Z,1016.33
2022-11-27T06:59:19.827Z,1016.41
2022-11-27T07:00:19.801Z,1016.36
2022-11-27T07:01:19.891Z,1016.36
2022-11-27T07:02:19.870Z,1016.33
2022-11-27T07:03:19.774Z,1016.31
2022-11-27T07:04:19.755Z,1016.33
2022-11-27T07:05:19.759Z,1016.25
2022-11-27T07:06:19.729Z,1016.30
2022-11-27T07:07:19.814Z,1016.25
2022-11-27T07:08:19.708Z,1016.34
2022-11-27T07:09:19.703Z,1016.30
2022-11-27T07:10:19.697Z,1016.26
2022-11-27T07:11:19.682Z,1016.17
2022-11-27T07:12:19.658Z,1016.22
2022-11-27T07:13:19.649Z,1016.14
2022-11-27T07:14:19.750Z,1016.23
2022-11-27T07:15:19.644Z,1016.21
2022-11-27T07:16:19.744Z,1016.16
2022-11-27T07:17:19.614Z,1016.14
2022-11-27T07:18:19.599Z,1016.13
2022-11-27T07:19:20.413Z,1016.17
2022-11-27T07:20:19.580Z,1016.12
2022-11-27T07:21:19.561Z,1016.13
2022-11-27T07:22:19.554Z,1016.11
2022-11-27T07:23:19.540Z,1016.08
2022-11-27T07:24:19.534Z,1016.07
2022-11-27T07:25:19.546Z,1016.11
2022-11-27T07:26:19.517Z,1016.15
2022-11-27T07:27:19.497Z,1016.23
2022-11-27T07:28:19.511Z,1016.24
2022-11-27T07:29:19.481Z,1016.21
2022-11-27T07:30:19.596Z,1016.19
2022-11-27T07:31:19.578Z,1016.14
2022-11-27T07:32:19.437Z,1016.16
2022-11-27T07:33:19.455Z,1016.10
2022-11-27T07:34:21.640Z,1016.11
2022-11-27T07:35:19.412Z,1016.06
2022-11-27T07:36:19.415Z,1016.04
2022-11-27T07:37:19.381Z,1016.13
2022-11-27T07:38:19.375Z,1016.09
2022-11-27T07:39:33.784Z,1016.12
2022-11-27T07:40:21.272Z,1016.12
2022-11-27T07:41:19.351Z,1016.07
2022-11-27T07:43:20.319Z,1016.07
2022-11-27T07:44:19.301Z,1016.08
2022-11-27T07:45:19.322Z,1016.04
2022-11-27T07:46:19.592Z,1016.04
2022-11-27T07:47:19.292Z,1015.97
2022-11-27T07:48:19.254Z,1016.04
2022-11-27T07:49:19.247Z,1016.01
2022-11-27T07:50:19.257Z,1015.96
2022-11-27T07:51:19.245Z,1016.02
2022-11-27T07:52:19.221Z,1015.97
2022-11-27T07:53:19.202Z,1015.98
2022-11-27T07:54:19.186Z,1016.03
2022-11-27T07:55:19.181Z,1016.00
2022-11-27T07:56:19.173Z,1016.02
2022-11-27T07:57:19.165Z,1016.06
2022-11-27T07:58:19.168Z,1016.03
2022-11-27T07:59:19.133Z,1016.10
2022-11-27T08:00:19.118Z,1016.07
2022-11-27T08:01:19.193Z,1016.02
2022-11-27T08:02:19.224Z,1016.06
2022-11-27T08:03:19.091Z,1016.02
2022-11-27T08:04:19.156Z,1016.00
2022-11-27T08:05:19.185Z,1015.98
2022-11-27T08:06:19.060Z,1015.99
2022-11-27T08:07:19.154Z,1015.93
2022-11-27T08:08:19.031Z,1015.94
2022-11-27T08:09:19.021Z,1015.88
2022-11-27T08:10:19.008Z,1015.82
2022-11-27T08:11:19.000Z,1015.81
2022-11-27T08:12:19.002Z,1015.81
2022-11-27T08:13:18.983Z,1015.79
2022-11-27T08:14:18.959Z,1015.84
2022-11-27T08:15:18.961Z,1015.81
2022-11-27T08:16:19.046Z,1015.79
2022-11-27T08:17:18.927Z,1015.80
2022-11-27T08:18:19.047Z,1015.74
2022-11-27T08:19:18.914Z,1015.75
2022-11-27T08:20:18.899Z,1015.79
2022-11-27T08:21:18.883Z,1015.79
2022-11-27T08:22:18.868Z,1015.77
2022-11-27T08:23:18.863Z,1015.79
2022-11-27T08:24:18.855Z,1015.86
2022-11-27T08:25:18.852Z,1015.89
2022-11-27T08:26:18.835Z,1015.88
2022-11-27T08:27:18.812Z,1015.88
2022-11-27T08:28:18.802Z,1015.82
2022-11-27T08:29:18.798Z,1015.72
2022-11-27T08:30:18.780Z,1015.62
2022-11-27T08:31:18.892Z,1015.66
2022-11-27T08:32:18.766Z,1015.64
2022-11-27T08:33:18.744Z,1015.64
2022-11-27T08:34:18.861Z,1015.67
2022-11-27T08:35:18.721Z,1015.61
2022-11-27T08:36:18.761Z,1015.62
2022-11-27T08:37:18.709Z,1015.58
2022-11-27T08:38:18.690Z,1015.52
2022-11-27T08:39:18.686Z,1015.52
2022-11-27T08:40:18.667Z,1015.55
2022-11-27T08:41:18.654Z,1015.53
2022-11-27T08:42:18.648Z,1015.54
2022-11-27T08:43:18.652Z,1015.46
2022-11-27T08:44:18.630Z,1015.45
2022-11-27T08:45:18.617Z,1015.46
2022-11-27T08:46:18.761Z,1015.48
2022-11-27T08:47:18.582Z,1015.53
2022-11-27T08:48:18.578Z,1015.45
2022-11-27T08:49:18.591Z,1015.40
2022-11-27T08:50:18.671Z,1015.39
2022-11-27T08:51:18.541Z,1015.38
2022-11-27T08:52:18.531Z,1015.33
2022-11-27T08:53:18.524Z,1015.27
2022-11-27T08:54:18.531Z,1015.29
2022-11-27T08:55:18.518Z,1015.29
2022-11-27T08:56:18.514Z,1015.24
2022-11-27T08:57:18.470Z,1015.25
2022-11-27T08:58:18.464Z,1015.24
2022-11-27T08:59:18.457Z,1015.22
2022-11-27T09:00:20.518Z,1015.30
2022-11-27T09:01:19.517Z,1015.26
2022-11-27T09:02:18.436Z,1015.25
2022-11-27T09:03:18.404Z,1015.27
2022-11-27T09:04:18.481Z,1015.29
2022-11-27T09:05:18.409Z,1015.28
2022-11-27T09:06:18.488Z,1015.24
2022-11-27T09:07:18.400Z,1015.30
2022-11-27T09:08:18.352Z,1015.26
2022-11-27T09:09:18.340Z,1015.32
2022-11-27T09:10:18.348Z,1015.27
2022-11-27T09:11:18.313Z,1015.25
2022-11-27T09:12:18.311Z,1015.27
2022-11-27T09:13:18.310Z,1015.28
2022-11-27T09:14:18.283Z,1015.33
2022-11-27T09:15:18.274Z,1015.26
2022-11-27T09:16:18.380Z,1015.28
2022-11-27T09:17:18.272Z,1015.29
2022-11-27T09:18:18.241Z,1015.33
2022-11-27T09:19:18.227Z,1015.27
2022-11-27T09:20:18.227Z,1015.27
2022-11-27T09:21:18.200Z,1015.28
2022-11-27T09:22:18.311Z,1015.28
2022-11-27T09:23:18.175Z,1015.23
2022-11-27T09:24:18.173Z,1015.28
2022-11-27T09:25:18.162Z,1015.25
2022-11-27T09:26:18.150Z,1015.27
2022-11-27T09:27:18.133Z,1015.33
2022-11-27T09:28:18.126Z,1015.32
2022-11-27T09:29:18.107Z,1015.26
2022-11-27T09:30:18.115Z,1015.24
2022-11-27T09:31:18.100Z,1015.27
2022-11-27T09:32:18.164Z,1015.29
2022-11-27T09:33:18.063Z,1015.27
2022-11-27T09:34:18.055Z,1015.33
2022-11-27T09:35:18.250Z,1015.32
2022-11-27T09:36:18.031Z,1015.27
2022-11-27T09:37:18.019Z,1015.27
2022-11-27T09:38:18.126Z,1015.27
2022-11-27T09:39:18.017Z,1015.24
2022-11-27T09:40:18.019Z,1015.17
2022-11-27T09:41:17.971Z,1015.22
2022-11-27T09:42:17.961Z,1015.28
2022-11-27T09:43:17.949Z,1015.28
2022-11-27T09:44:17.954Z,1015.25
2022-11-27T09:45:17.979Z,1015.33
2022-11-27T09:46:18.016Z,1015.27
2022-11-27T09:47:17.903Z,1015.29
2022-11-27T09:48:17.896Z,1015.27
2022-11-27T09:49:17.884Z,1015.25
2022-11-27T09:50:17.882Z,1015.27
2022-11-27T09:51:17.894Z,1015.31
2022-11-27T09:52:17.884Z,1015.33
2022-11-27T09:53:17.841Z,1015.22
2022-11-27T09:54:17.943Z,1015.29
2022-11-27T09:55:17.817Z,1015.25
2022-11-27T09:56:17.814Z,1015.19
2022-11-27T09:57:17.794Z,1015.21
2022-11-27T09:58:17.791Z,1015.18
2022-11-27T09:59:17.770Z,1015.19
2022-11-27T10:00:17.760Z,1015.23
2022-11-27T10:01:17.835Z,1015.23
2022-11-27T10:02:17.911Z,1015.22
2022-11-27T10:03:17.854Z,1015.19
2022-11-27T10:04:17.727Z,1015.16
2022-11-27T10:05:18.259Z,1015.19
2022-11-27T10:06:17.690Z,1015.16
2022-11-27T10:07:17.726Z,1015.08
2022-11-27T10:08:17.673Z,1015.20
2022-11-27T10:09:17.658Z,1015.17
2022-11-27T10:10:17.765Z,1015.17
2022-11-27T10:11:17.633Z,1015.14
2022-11-27T10:12:17.633Z,1015.15
2022-11-27T10:13:17.613Z,1015.11
2022-11-27T10:14:17.603Z,1015.12
2022-11-27T10:15:17.587Z,1015.09
2022-11-27T10:16:17.635Z,1015.09
2022-11-27T10:17:17.605Z,1015.08
2022-11-27T10:18:17.565Z,1015.07
2022-11-27T10:19:17.542Z,1015.05
2022-11-27T10:20:17.535Z,1015.12
2022-11-27T10:21:17.520Z,1015.08
2022-11-27T10:22:20.935Z,1015.07
2022-11-27T10:23:17.529Z,1015.05
2022-11-27T10:24:17.499Z,1015.12
2022-11-27T10:25:17.514Z,1015.12
2022-11-27T10:26:17.590Z,1015.04
2022-11-27T10:27:17.468Z,1015.10
2022-11-27T10:28:17.455Z,1015.07
2022-11-27T10:29:17.451Z,1015.04
2022-11-27T10:30:17.422Z,1014.96
2022-11-27T10:31:17.435Z,1014.97
2022-11-27T10:32:46.773Z,1014.95
2022-11-27T10:33:18.413Z,1014.95
2022-11-27T10:34:17.380Z,1015.01
2022-11-27T10:35:17.365Z,1014.96
2022-11-27T10:36:17.356Z,1014.93
2022-11-27T10:37:17.338Z,1014.86
2022-11-27T10:38:17.336Z,1014.93
2022-11-27T10:39:17.326Z,1014.93
2022-11-27T10:40:17.315Z,1014.95
2022-11-27T10:41:47.702Z,1015.01
2022-11-27T10:42:18.397Z,1014.94
2022-11-27T10:43:17.269Z,1014.91
2022-11-27T10:44:17.281Z,1014.91
2022-11-27T10:45:17.250Z,1014.88
2022-11-27T10:46:17.399Z,1014.90
2022-11-27T10:47:17.259Z,1014.89
2022-11-27T10:48:17.221Z,1014.86
2022-11-27T10:49:17.202Z,1014.86
2022-11-27T10:50:17.204Z,1014.83
2022-11-27T10:51:17.182Z,1014.82
2022-11-27T10:52:17.176Z,1014.81
2022-11-27T10:53:17.156Z,1014.81
2022-11-27T10:54:17.153Z,1014.88
2022-11-27T10:55:17.184Z,1014.86
2022-11-27T10:56:17.127Z,1014.81
2022-11-27T10:57:17.116Z,1014.82
2022-11-27T10:58:17.219Z,1014.87
2022-11-27T10:59:17.137Z,1014.81
2022-11-27T11:00:17.100Z,1014.78
2022-11-27T11:01:17.100Z,1014.84
2022-11-27T11:02:17.120Z,1014.79
2022-11-27T11:03:17.065Z,1014.77
2022-11-27T11:04:37.085Z,1014.75
2022-11-27T11:05:37.245Z,1014.71
2022-11-27T11:06:21.309Z,1014.67
2022-11-27T11:07:17.034Z,1014.66
2022-11-27T11:08:17.020Z,1014.65
2022-11-27T11:09:17.006Z,1014.57
2022-11-27T11:10:16.988Z,1014.63
2022-11-27T11:11:16.951Z,1014.62
2022-11-27T11:12:16.943Z,1014.54
2022-11-27T11:13:16.963Z,1014.57
2022-11-27T11:14:17.050Z,1014.45
2022-11-27T11:15:16.919Z,1014.43
2022-11-27T11:16:20.561Z,1014.56
2022-11-27T11:17:18.030Z,1014.43
2022-11-27T11:18:16.875Z,1014.35
2022-11-27T11:19:16.867Z,1014.34
2022-11-27T11:20:16.865Z,1014.37
2022-11-27T11:21:16.856Z,1014.30
2022-11-27T11:22:16.838Z,1014.37
2022-11-27T11:23:16.819Z,1014.25
2022-11-27T11:24:16.810Z,1014.24
2022-11-27T11:25:16.795Z,1014.19
2022-11-27T11:26:16.825Z,1014.20
2022-11-27T11:27:16.775Z,1014.15
2022-11-27T11:28:16.782Z,1014.15
2022-11-27T11:29:16.756Z,1014.13
2022-11-27T11:30:16.903Z,1014.17
2022-11-27T11:31:16.749Z,1014.23
2022-11-27T11:32:16.848Z,1014.10
2022-11-27T11:33:16.715Z,1014.02
2022-11-27T11:34:16.690Z,1014.03
2022-11-27T11:35:16.685Z,1014.02
2022-11-27T11:36:16.700Z,1014.08
2022-11-27T11:37:16.674Z,1013.97
2022-11-27T11:38:16.655Z,1013.95
2022-11-27T11:39:16.646Z,1013.96
2022-11-27T11:40:16.791Z,1014.00
2022-11-27T11:41:16.622Z,1014.04
2022-11-27T11:42:16.618Z,1013.99
2022-11-27T11:43:16.597Z,1013.94
2022-11-27T11:44:16.601Z,1013.89
2022-11-27T11:45:16.574Z,1013.95
2022-11-27T11:46:16.771Z,1013.94
2022-11-27T11:47:16.558Z,1013.93
2022-11-27T11:48:16.540Z,1013.84
2022-11-27T11:49:16.538Z,1013.82
2022-11-27T11:50:16.548Z,1013.90
2022-11-27T11:51:16.508Z,1013.81
2022-11-27T11:52:16.499Z,1013.81
2022-11-27T11:53:16.494Z,1013.73
2022-11-27T11:54:16.475Z,1013.73
2022-11-27T11:55:16.474Z,1013.66
2022-11-27T11:56:16.463Z,1013.70
2022-11-27T11:57:16.440Z,1013.63
2022-11-27T11:58:16.452Z,1013.64
2022-11-27T11:59:16.419Z,1013.65
2022-11-27T12:00:16.425Z,1013.61
2022-11-27T12:01:26.973Z,1013.63
2022-11-27T12:02:17.557Z,1013.69
2022-11-27T12:03:16.377Z,1013.71
2022-11-27T12:04:16.413Z,1013.71
2022-11-27T12:05:16.354Z,1013.69
2022-11-27T12:06:16.349Z,1013.64